createdAt,value
2016-09-23T00:00:52.242Z,0
2016-09-23T00:01:52.278Z,0
2016-09-23T00:02:52.284Z,0
2016-09-23T00:03:52.277Z,0
2016-09-23T00:04:52.304Z,0
2016-09-23T00:05:52.302Z,0
2016-09-23T00:06:52.317Z,0
2016-09-23T00:07:52.357Z,0
2016-09-23T00:08:52.281Z,0
2016-09-23T00:09:52.272Z,0
2016-09-23T00:10:52.289Z,0
2016-09-23T00:11:52.284Z,0
2016-09-23T00:12:52.335Z,0
2016-09-23T00:13:52.326Z,0
2016-09-23T00:14:52.306Z,0
2016-09-23T00:15:52.309Z,0
2016-09-23T00:16:52.330Z,0
2016-09-23T00:17:52.327Z,0
2016-09-23T00:18:52.332Z,0
2016-09-23T00:19:52.707Z,0
2016-09-23T00:20:52.310Z,0
2016-09-23T00:21:52.299Z,0
2016-09-23T00:22:52.307Z,0
2016-09-23T00:23:52.343Z,0
2016-09-23T00:24:52.321Z,0
2016-09-23T00:25:52.314Z,0
2016-09-23T00:26:52.327Z,0
2016-09-23T00:27:52.272Z,0
2016-09-23T00:28:52.320Z,0
2016-09-23T00:29:52.332Z,0
2016-09-23T00:30:52.345Z,0
2016-09-23T00:31:52.312Z,0
2016-09-23T00:32:52.303Z,0
2016-09-23T00:33:52.306Z,0
2016-09-23T00:34:52.287Z,0
2016-09-23T00:35:52.354Z,0
2016-09-23T00:36:52.329Z,0
2016-09-23T00:37:52.409Z,0
2016-09-23T00:38:52.339Z,0
2016-09-23T00:39:52.376Z,0
2016-09-23T00:40:52.338Z,0
2016-09-23T00:41:52.328Z,0
2016-09-23T00:42:52.322Z,0
2016-09-23T00:43:52.301Z,0
2016-09-23T00:44:52.369Z,0
2016-09-23T00:45:52.351Z,0
2016-09-23T00:46:52.317Z,0
2016-09-23T00:47:52.317Z,0
2016-09-23T00:48:52.402Z,0
2016-09-23T00:49:52.351Z,0
2016-09-23T00:50:52.305Z,0
2016-09-23T00:51:52.351Z,0
2016-09-23T00:52:52.342Z,0
2016-09-23T00:53:52.377Z,0
2016-09-23T00:54:52.345Z,0
2016-09-23T00:55:52.367Z,0
2016-09-23T00:56:52.549Z,0
2016-09-23T00:57:52.379Z,0
2016-09-23T00:58:52.428Z,0
2016-09-23T00:59:52.312Z,0
2016-09-23T01:00:52.400Z,0
2016-09-23T01:01:52.421Z,0
2016-09-23T01:02:52.405Z,0
2016-09-23T01:03:52.422Z,0
2016-09-23T01:04:52.392Z,0
2016-09-23T01:05:52.442Z,0
2016-09-23T01:06:52.401Z,0
2016-09-23T01:07:52.340Z,0
2016-09-23T01:08:52.361Z,0
2016-09-23T01:09:52.354Z,0
2016-09-23T01:10:52.330Z,0
2016-09-23T01:11:52.317Z,0
2016-09-23T01:12:52.328Z,0
2016-09-23T01:13:52.368Z,0
2016-09-23T01:14:52.344Z,0
2016-09-23T01:15:52.367Z,0
2016-09-23T01:16:52.387Z,0
2016-09-23T01:17:52.337Z,0
2016-09-23T01:18:52.394Z,0
2016-09-23T01:19:52.312Z,0
2016-09-23T01:20:52.386Z,0
2016-09-23T01:21:52.354Z,0
2016-09-23T01:22:52.399Z,0
2016-09-23T01:23:52.347Z,0
2016-09-23T01:24:52.373Z,0
2016-09-23T01:25:52.377Z,0
2016-09-23T01:26:52.356Z,0
2016-09-23T01:27:52.345Z,0
2016-09-23T01:28:52.388Z,0
2016-09-23T01:29:52.332Z,0
2016-09-23T01:30:52.389Z,0
2016-09-23T01:31:52.378Z,0
2016-09-23T01:32:52.389Z,0
2016-09-23T01:33:52.363Z,0
2016-09-23T01:34:52.364Z,0
2016-09-23T01:35:52.328Z,0
2016-09-23T01:36:52.364Z,0
2016-09-23T01:37:52.342Z,0
2016-09-23T01:38:52.361Z,0
2016-09-23T01:39:52.388Z,0
2016-09-23T01:40:52.344Z,0
2016-09-23T01:41:52.355Z,0
2016-09-23T01:42:52.361Z,0
2016-09-23T01:43:52.335Z,0
2016-09-23T01:44:52.416Z,0
2016-09-23T01:45:52.381Z,0
2016-09-23T01:46:52.338Z,0
2016-09-23T01:47:52.381Z,0
2016-09-23T01:48:52.339Z,0
2016-09-23T01:49:52.357Z,0
2016-09-23T01:50:52.379Z,0
2016-09-23T01:51:52.360Z,0
2016-09-23T01:52:52.347Z,0
2016-09-23T01:53:52.351Z,0
2016-09-23T01:54:52.358Z,0
2016-09-23T01:55:52.357Z,0
2016-09-23T01:56:52.359Z,0
2016-09-23T01:57:52.367Z,0
2016-09-23T01:58:52.364Z,0
2016-09-23T01:59:52.377Z,0
2016-09-23T02:00:52.424Z,0
2016-09-23T02:01:52.385Z,0
2016-09-23T02:02:52.377Z,0
2016-09-23T02:03:52.351Z,0
2016-09-23T02:04:52.486Z,0
2016-09-23T02:05:52.383Z,0
2016-09-23T02:06:52.403Z,0
2016-09-23T02:07:52.402Z,0
2016-09-23T02:08:52.375Z,0
2016-09-23T02:09:52.396Z,0
2016-09-23T02:10:52.417Z,0
2016-09-23T02:11:52.379Z,0
2016-09-23T02:12:52.386Z,0
2016-09-23T02:13:52.422Z,0
2016-09-23T02:14:52.392Z,0
2016-09-23T02:15:52.390Z,0
2016-09-23T02:16:52.380Z,0
2016-09-23T02:17:52.408Z,0
2016-09-23T02:18:52.379Z,0
2016-09-23T02:19:52.425Z,0
2016-09-23T02:20:52.418Z,0
2016-09-23T02:21:52.370Z,0
2016-09-23T02:22:52.377Z,0
2016-09-23T02:23:52.371Z,0
2016-09-23T02:24:52.421Z,0
2016-09-23T02:25:52.385Z,0
2016-09-23T02:26:52.388Z,0
2016-09-23T02:27:52.419Z,0
2016-09-23T02:28:52.374Z,0
2016-09-23T02:29:52.431Z,0
2016-09-23T02:30:52.384Z,0
2016-09-23T02:31:52.392Z,0
2016-09-23T02:32:52.377Z,0
2016-09-23T02:33:52.407Z,0
2016-09-23T02:34:52.444Z,0
2016-09-23T02:35:52.397Z,0
2016-09-23T02:36:52.424Z,0
2016-09-23T02:37:52.395Z,0
2016-09-23T02:38:52.446Z,0
2016-09-23T02:39:52.424Z,0
2016-09-23T02:40:52.441Z,0
2016-09-23T02:41:52.460Z,0
2016-09-23T02:42:52.420Z,0
2016-09-23T02:43:52.418Z,0
2016-09-23T02:44:52.442Z,0
2016-09-23T02:45:52.427Z,0
2016-09-23T02:46:52.428Z,0
2016-09-23T02:47:52.420Z,0
2016-09-23T02:48:52.472Z,0
2016-09-23T02:49:52.434Z,0
2016-09-23T02:50:52.465Z,0
2016-09-23T02:51:52.422Z,0
2016-09-23T02:52:52.390Z,0
2016-09-23T02:53:52.473Z,0
2016-09-23T02:54:52.454Z,0
2016-09-23T02:55:52.513Z,0
2016-09-23T02:56:52.418Z,0
2016-09-23T02:57:52.445Z,0
2016-09-23T02:58:52.424Z,0
2016-09-23T02:59:52.437Z,0
2016-09-23T03:00:52.433Z,0
2016-09-23T03:01:52.422Z,0
2016-09-23T03:02:52.423Z,0
2016-09-23T03:03:52.407Z,0
2016-09-23T03:04:52.421Z,0
2016-09-23T03:05:52.498Z,0
2016-09-23T03:06:52.441Z,0
2016-09-23T03:07:52.440Z,0
2016-09-23T03:08:52.439Z,0
2016-09-23T03:09:52.413Z,0
2016-09-23T03:10:52.408Z,0
2016-09-23T03:11:52.473Z,0
2016-09-23T03:12:52.436Z,0
2016-09-23T03:13:52.417Z,0
2016-09-23T03:14:52.424Z,0
2016-09-23T03:15:52.449Z,0
2016-09-23T03:16:52.442Z,0
2016-09-23T03:17:52.445Z,0
2016-09-23T03:18:52.459Z,0
2016-09-23T03:19:52.416Z,0
2016-09-23T03:20:52.466Z,0
2016-09-23T03:21:52.454Z,0
2016-09-23T03:22:52.451Z,0
2016-09-23T03:23:52.465Z,0
2016-09-23T03:24:52.442Z,0
2016-09-23T03:25:52.421Z,0
2016-09-23T03:26:52.446Z,0
2016-09-23T03:27:52.431Z,0
2016-09-23T03:28:52.423Z,0
2016-09-23T03:29:52.446Z,0
2016-09-23T03:30:52.422Z,0
2016-09-23T03:31:52.434Z,0
2016-09-23T03:32:52.483Z,0
2016-09-23T03:33:52.428Z,0
2016-09-23T03:34:52.456Z,0
2016-09-23T03:35:52.441Z,0
2016-09-23T03:36:52.461Z,0
2016-09-23T03:37:52.469Z,0
2016-09-23T03:38:52.433Z,0
2016-09-23T03:39:52.470Z,0
2016-09-23T03:40:52.476Z,0
2016-09-23T03:41:52.438Z,0
2016-09-23T03:42:52.466Z,0
2016-09-23T03:43:52.447Z,0
2016-09-23T03:44:52.483Z,0
2016-09-23T03:45:52.450Z,0
2016-09-23T03:46:52.486Z,0
2016-09-23T03:47:52.488Z,0
2016-09-23T03:48:52.456Z,0
2016-09-23T03:49:52.464Z,0
2016-09-23T03:50:52.454Z,0
2016-09-23T03:51:52.467Z,0
2016-09-23T03:52:52.488Z,0
2016-09-23T03:53:52.481Z,0
2016-09-23T03:54:52.486Z,0
2016-09-23T03:55:52.463Z,0
2016-09-23T03:56:52.454Z,0
2016-09-23T03:57:52.489Z,0
2016-09-23T03:58:52.495Z,0
2016-09-23T03:59:52.498Z,0
2016-09-23T04:00:52.435Z,0
2016-09-23T04:01:52.443Z,0
2016-09-23T04:02:52.470Z,0
2016-09-23T04:03:52.479Z,0
2016-09-23T04:04:52.483Z,0
2016-09-23T04:05:52.502Z,0
2016-09-23T04:06:52.502Z,0
2016-09-23T04:07:52.527Z,0
2016-09-23T04:08:52.500Z,0
2016-09-23T04:09:52.490Z,0
2016-09-23T04:10:52.476Z,0
2016-09-23T04:11:52.492Z,0
2016-09-23T04:12:52.543Z,0
2016-09-23T04:13:52.501Z,0
2016-09-23T04:14:52.496Z,0
2016-09-23T04:15:52.479Z,0
2016-09-23T04:16:52.489Z,0
2016-09-23T04:17:52.511Z,0
2016-09-23T04:18:52.504Z,0
2016-09-23T04:19:52.511Z,0
2016-09-23T04:20:52.501Z,0
2016-09-23T04:21:52.537Z,0
2016-09-23T04:22:52.476Z,0
2016-09-23T04:23:52.505Z,0
2016-09-23T04:24:52.470Z,0
2016-09-23T04:25:52.471Z,0
2016-09-23T04:26:52.512Z,0
2016-09-23T04:27:52.531Z,0
2016-09-23T04:28:52.571Z,0
2016-09-23T04:29:52.603Z,0
2016-09-23T04:30:52.574Z,0
2016-09-23T04:31:52.584Z,0
2016-09-23T04:32:52.577Z,0
2016-09-23T04:33:52.584Z,0
2016-09-23T04:34:52.578Z,0
2016-09-23T04:35:52.571Z,0
2016-09-23T04:36:52.584Z,0
2016-09-23T04:37:52.575Z,0
2016-09-23T04:38:52.639Z,0
2016-09-23T04:39:52.524Z,0
2016-09-23T04:40:52.589Z,0
2016-09-23T04:41:52.537Z,0
2016-09-23T04:42:52.583Z,0
2016-09-23T04:43:52.609Z,0
2016-09-23T04:44:52.649Z,0
2016-09-23T04:45:52.550Z,0
2016-09-23T04:46:52.632Z,0
2016-09-23T04:47:52.619Z,0
2016-09-23T04:48:52.597Z,0
2016-09-23T04:49:52.566Z,0
2016-09-23T04:50:52.583Z,0
2016-09-23T04:51:52.574Z,0
2016-09-23T04:52:52.584Z,0
2016-09-23T04:53:52.568Z,0
2016-09-23T04:54:52.537Z,0
2016-09-23T04:55:52.603Z,0
2016-09-23T04:56:52.651Z,0
2016-09-23T04:57:52.578Z,0
2016-09-23T04:58:52.611Z,0
2016-09-23T04:59:52.584Z,0
2016-09-23T05:00:52.619Z,0
2016-09-23T05:01:52.643Z,0
2016-09-23T05:02:52.639Z,0
2016-09-23T05:03:52.645Z,0
2016-09-23T05:04:52.603Z,0
2016-09-23T05:05:52.577Z,0
2016-09-23T05:06:52.589Z,0
2016-09-23T05:07:52.596Z,0
2016-09-23T05:08:52.638Z,0
2016-09-23T05:09:52.663Z,0
2016-09-23T05:10:52.627Z,0
2016-09-23T05:11:52.577Z,0
2016-09-23T05:12:52.596Z,0
2016-09-23T05:13:52.617Z,0
2016-09-23T05:14:52.613Z,0
2016-09-23T05:15:52.591Z,5
2016-09-23T05:16:52.592Z,5
2016-09-23T05:17:52.625Z,5
2016-09-23T05:18:53.384Z,5
2016-09-23T05:19:52.658Z,5
2016-09-23T05:20:52.651Z,5
2016-09-23T05:21:52.562Z,5
2016-09-23T05:22:52.586Z,10
2016-09-23T05:23:52.685Z,10
2016-09-23T05:24:52.598Z,10
2016-09-23T05:25:52.635Z,10
2016-09-23T05:26:52.598Z,10
2016-09-23T05:27:52.606Z,15
2016-09-23T05:28:52.654Z,15
2016-09-23T05:29:52.679Z,15
2016-09-23T05:30:52.584Z,15
2016-09-23T05:31:52.656Z,15
2016-09-23T05:32:52.594Z,15
2016-09-23T05:33:52.590Z,15
2016-09-23T05:34:52.555Z,15
2016-09-23T05:35:52.584Z,15
2016-09-23T05:36:52.610Z,15
2016-09-23T05:37:52.606Z,20
2016-09-23T05:38:53.529Z,20
2016-09-23T05:39:52.568Z,20
2016-09-23T05:40:52.584Z,25
2016-09-23T05:41:52.546Z,25
2016-09-23T05:42:52.585Z,30
2016-09-23T05:43:52.585Z,30
2016-09-23T05:44:52.577Z,30
2016-09-23T05:45:52.596Z,30
2016-09-23T05:46:52.603Z,35
2016-09-23T05:47:52.576Z,35
2016-09-23T05:48:52.600Z,35
2016-09-23T05:49:52.583Z,40
2016-09-23T05:50:52.637Z,40
2016-09-23T05:51:52.562Z,40
2016-09-23T05:52:52.566Z,40
2016-09-23T05:53:52.528Z,45
2016-09-23T05:54:52.548Z,45
2016-09-23T05:55:52.544Z,50
2016-09-23T05:56:52.559Z,55
2016-09-23T05:57:52.579Z,55
2016-09-23T05:58:52.574Z,55
2016-09-23T05:59:52.612Z,60
2016-09-23T06:00:52.605Z,60
2016-09-23T06:01:52.559Z,65
2016-09-23T06:02:52.610Z,70
2016-09-23T06:03:52.659Z,70
2016-09-23T06:04:52.620Z,70
2016-09-23T06:05:52.577Z,75
2016-09-23T06:06:52.592Z,70
2016-09-23T06:07:52.582Z,70
2016-09-23T06:08:52.628Z,65
2016-09-23T06:09:52.631Z,65
2016-09-23T06:10:52.569Z,65
2016-09-23T06:11:52.602Z,65
2016-09-23T06:12:52.623Z,70
2016-09-23T06:13:52.635Z,70
2016-09-23T06:14:52.626Z,70
2016-09-23T06:15:52.611Z,70
2016-09-23T06:16:52.557Z,70
2016-09-23T06:17:52.565Z,70
2016-09-23T06:18:52.592Z,65
2016-09-23T06:19:52.578Z,65
2016-09-23T06:20:52.575Z,70
2016-09-23T06:21:52.582Z,70
2016-09-23T06:22:52.588Z,75
2016-09-23T06:23:52.587Z,75
2016-09-23T06:24:52.614Z,80
2016-09-23T06:25:52.594Z,80
2016-09-23T06:26:52.577Z,80
2016-09-23T06:27:52.585Z,80
2016-09-23T06:28:52.595Z,80
2016-09-23T06:29:52.608Z,90
2016-09-23T06:30:52.607Z,85
2016-09-23T06:31:52.598Z,90
2016-09-23T06:32:52.660Z,95
2016-09-23T06:33:53.361Z,100
2016-09-23T06:34:52.630Z,100
2016-09-23T06:35:52.600Z,100
2016-09-23T06:36:52.615Z,95
2016-09-23T06:37:52.592Z,90
2016-09-23T06:38:52.611Z,90
2016-09-23T06:39:52.627Z,90
2016-09-23T06:40:52.633Z,90
2016-09-23T06:41:52.628Z,95
2016-09-23T06:42:52.646Z,100
2016-09-23T06:43:52.631Z,105
2016-09-23T06:44:52.633Z,110
2016-09-23T06:45:52.619Z,115
2016-09-23T06:46:52.627Z,120
2016-09-23T06:47:52.627Z,125
2016-09-23T06:48:52.607Z,125
2016-09-23T06:49:52.615Z,130
2016-09-23T06:50:52.647Z,130
2016-09-23T06:51:52.642Z,130
2016-09-23T06:52:52.621Z,130
2016-09-23T06:53:52.689Z,130
2016-09-23T06:54:52.679Z,135
2016-09-23T06:55:53.504Z,135
2016-09-23T06:56:52.643Z,135
2016-09-23T06:57:52.655Z,135
2016-09-23T06:58:52.631Z,140
2016-09-23T06:59:52.655Z,140
2016-09-23T07:00:52.643Z,145
2016-09-23T07:01:52.589Z,145
2016-09-23T07:02:52.647Z,145
2016-09-23T07:03:53.530Z,150
2016-09-23T07:04:52.673Z,150
2016-09-23T07:05:52.650Z,150
2016-09-23T07:06:52.649Z,155
2016-09-23T07:07:52.617Z,155
2016-09-23T07:08:52.648Z,155
2016-09-23T07:09:52.677Z,155
2016-09-23T07:10:52.647Z,155
2016-09-23T07:11:52.641Z,155
2016-09-23T07:12:52.681Z,155
2016-09-23T07:13:52.641Z,160
2016-09-23T07:14:52.636Z,160
2016-09-23T07:15:52.746Z,160
2016-09-23T07:16:52.670Z,160
2016-09-23T07:17:52.651Z,160
2016-09-23T07:18:52.715Z,165
2016-09-23T07:19:52.701Z,165
2016-09-23T07:20:52.658Z,165
2016-09-23T07:21:52.666Z,165
2016-09-23T07:22:52.666Z,165
2016-09-23T07:23:52.689Z,165
2016-09-23T07:24:52.679Z,165
2016-09-23T07:25:52.651Z,165
2016-09-23T07:26:52.708Z,165
2016-09-23T07:27:52.708Z,165
2016-09-23T07:29:04.823Z,170
2016-09-23T07:30:06.383Z,170
2016-09-23T07:31:05.766Z,175
2016-09-23T07:31:52.724Z,175
2016-09-23T07:32:52.703Z,170
2016-09-23T07:34:05.942Z,170
2016-09-23T07:35:02.547Z,170
2016-09-23T07:35:52.649Z,175
2016-09-23T07:36:52.672Z,175
2016-09-23T07:37:52.692Z,180
2016-09-23T07:38:52.707Z,185
2016-09-23T07:39:52.682Z,195
2016-09-23T07:40:52.707Z,195
2016-09-23T07:41:52.697Z,200
2016-09-23T07:42:52.679Z,210
2016-09-23T07:43:52.670Z,210
2016-09-23T07:44:52.705Z,215
2016-09-23T07:45:52.781Z,220
2016-09-23T07:46:52.902Z,220
2016-09-23T07:47:52.684Z,215
2016-09-23T07:48:52.841Z,215
2016-09-23T07:49:52.740Z,225
2016-09-23T07:51:06.135Z,230
2016-09-23T07:52:05.620Z,220
2016-09-23T07:53:05.337Z,210
2016-09-23T07:54:05.681Z,200
2016-09-23T07:55:04.979Z,195
2016-09-23T07:56:05.411Z,195
2016-09-23T07:57:06.240Z,190
2016-09-23T07:57:52.717Z,190
2016-09-23T07:58:52.678Z,195
2016-09-23T08:00:29.525Z,205
2016-09-23T08:00:52.700Z,210
2016-09-23T08:01:52.758Z,215
2016-09-23T08:02:52.724Z,220
2016-09-23T08:03:52.699Z,225
2016-09-23T08:04:52.696Z,235
2016-09-23T08:05:52.949Z,245
2016-09-23T08:06:52.708Z,255
2016-09-23T08:07:52.703Z,275
2016-09-23T08:08:53.418Z,300
2016-09-23T08:09:52.712Z,325
2016-09-23T08:10:52.704Z,320
2016-09-23T08:11:52.715Z,315
2016-09-23T08:12:52.735Z,315
2016-09-23T08:13:52.748Z,315
2016-09-23T08:14:52.712Z,310
2016-09-23T08:15:52.737Z,310
2016-09-23T08:16:52.704Z,310
2016-09-23T08:17:52.750Z,315
2016-09-23T08:18:52.690Z,320
2016-09-23T08:19:52.721Z,335
2016-09-23T08:20:52.723Z,335
2016-09-23T08:21:52.710Z,325
2016-09-23T08:22:52.734Z,315
2016-09-23T08:23:52.757Z,310
2016-09-23T08:24:53.041Z,310
2016-09-23T08:25:53.268Z,320
2016-09-23T08:26:52.780Z,335
2016-09-23T08:27:52.772Z,335
2016-09-23T08:28:52.849Z,340
2016-09-23T08:29:52.776Z,335
2016-09-23T08:30:53.318Z,320
2016-09-23T08:31:52.802Z,305
2016-09-23T08:32:53.717Z,275
2016-09-23T08:33:52.801Z,240
2016-09-23T08:34:52.703Z,210
2016-09-23T08:35:53.077Z,180
2016-09-23T08:36:52.776Z,160
2016-09-23T08:37:52.808Z,145
2016-09-23T08:38:53.388Z,135
2016-09-23T08:39:52.795Z,130
2016-09-23T08:40:52.733Z,130
2016-09-23T08:41:52.795Z,120
2016-09-23T08:42:52.798Z,120
2016-09-23T08:43:52.750Z,120
2016-09-23T08:44:52.790Z,125
2016-09-23T08:45:52.779Z,125
2016-09-23T08:46:52.802Z,125
2016-09-23T08:47:52.769Z,125
2016-09-23T08:48:52.788Z,125
2016-09-23T08:49:52.781Z,125
2016-09-23T08:50:52.782Z,125
2016-09-23T08:51:52.825Z,125
2016-09-23T08:52:52.956Z,130
2016-09-23T08:53:52.754Z,135
2016-09-23T08:54:52.808Z,135
2016-09-23T08:55:52.722Z,140
2016-09-23T08:56:52.729Z,140
2016-09-23T08:57:52.756Z,145
2016-09-23T08:58:52.846Z,145
2016-09-23T08:59:52.836Z,150
2016-09-23T09:00:52.751Z,155
2016-09-23T09:01:53.764Z,160
2016-09-23T09:02:52.792Z,160
2016-09-23T09:03:52.811Z,165
2016-09-23T09:04:52.806Z,165
2016-09-23T09:05:52.810Z,165
2016-09-23T09:06:52.759Z,165
2016-09-23T09:07:52.832Z,170
2016-09-23T09:08:52.807Z,170
2016-09-23T09:09:52.852Z,165
2016-09-23T09:10:52.773Z,170
2016-09-23T09:11:52.794Z,175
2016-09-23T09:12:52.740Z,185
2016-09-23T09:13:52.817Z,185
2016-09-23T09:14:52.769Z,195
2016-09-23T09:15:52.728Z,200
2016-09-23T09:16:52.750Z,205
2016-09-23T09:17:52.845Z,210
2016-09-23T09:18:52.807Z,215
2016-09-23T09:19:52.756Z,225
2016-09-23T09:20:52.763Z,230
2016-09-23T09:21:52.760Z,240
2016-09-23T09:22:52.761Z,250
2016-09-23T09:23:52.828Z,260
2016-09-23T09:24:52.779Z,275
2016-09-23T09:25:52.824Z,280
2016-09-23T09:26:52.824Z,290
2016-09-23T09:27:52.783Z,300
2016-09-23T09:28:52.838Z,305
2016-09-23T09:29:52.754Z,300
2016-09-23T09:30:52.766Z,295
2016-09-23T09:31:52.776Z,295
2016-09-23T09:32:52.760Z,300
2016-09-23T09:33:52.794Z,300
2016-09-23T09:34:52.766Z,300
2016-09-23T09:35:52.918Z,300
2016-09-23T09:36:52.786Z,300
2016-09-23T09:37:52.793Z,300
2016-09-23T09:38:52.808Z,305
2016-09-23T09:39:52.868Z,310
2016-09-23T09:40:52.786Z,315
2016-09-23T09:41:52.754Z,320
2016-09-23T09:42:52.800Z,325
2016-09-23T09:43:52.786Z,340
2016-09-23T09:44:52.839Z,340
2016-09-23T09:45:52.785Z,340
2016-09-23T09:46:52.805Z,340
2016-09-23T09:47:52.772Z,340
2016-09-23T09:48:52.773Z,335
2016-09-23T09:49:52.793Z,325
2016-09-23T09:50:52.803Z,315
2016-09-23T09:51:52.752Z,315
2016-09-23T09:52:52.846Z,315
2016-09-23T09:53:52.895Z,305
2016-09-23T09:54:52.833Z,290
2016-09-23T09:55:52.777Z,285
2016-09-23T09:56:52.798Z,290
2016-09-23T09:57:52.885Z,290
2016-09-23T09:58:52.827Z,285
2016-09-23T09:59:52.876Z,260
2016-09-23T10:00:52.824Z,245
2016-09-23T10:01:52.798Z,230
2016-09-23T10:02:52.856Z,215
2016-09-23T10:03:52.861Z,210
2016-09-23T10:04:52.858Z,220
2016-09-23T10:05:52.834Z,225
2016-09-23T10:06:52.821Z,220
2016-09-23T10:07:52.864Z,215
2016-09-23T10:08:52.834Z,225
2016-09-23T10:09:52.899Z,235
2016-09-23T10:10:52.862Z,250
2016-09-23T10:11:52.858Z,270
2016-09-23T10:12:52.850Z,275
2016-09-23T10:13:52.893Z,280
2016-09-23T10:14:52.843Z,270
2016-09-23T10:15:52.821Z,265
2016-09-23T10:16:52.846Z,255
2016-09-23T10:17:52.871Z,260
2016-09-23T10:18:52.850Z,245
2016-09-23T10:19:52.944Z,230
2016-09-23T10:20:52.834Z,205
2016-09-23T10:21:52.862Z,180
2016-09-23T10:22:52.851Z,160
2016-09-23T10:23:52.818Z,150
2016-09-23T10:24:52.844Z,165
2016-09-23T10:25:52.863Z,205
2016-09-23T10:26:52.857Z,235
2016-09-23T10:27:52.842Z,250
2016-09-23T10:28:52.831Z,265
2016-09-23T10:29:52.856Z,260
2016-09-23T10:30:52.851Z,240
2016-09-23T10:31:52.835Z,230
2016-09-23T10:32:52.810Z,235
2016-09-23T10:33:52.839Z,230
2016-09-23T10:34:52.908Z,230
2016-09-23T10:35:52.862Z,215
2016-09-23T10:36:52.821Z,205
2016-09-23T10:37:52.815Z,200
2016-09-23T10:38:52.853Z,200
2016-09-23T10:39:52.859Z,195
2016-09-23T10:40:52.866Z,195
2016-09-23T10:41:52.939Z,205
2016-09-23T10:42:52.821Z,210
2016-09-23T10:43:52.854Z,195
2016-09-23T10:44:52.840Z,185
2016-09-23T10:45:52.886Z,185
2016-09-23T10:46:52.864Z,185
2016-09-23T10:47:52.940Z,185
2016-09-23T10:48:52.845Z,180
2016-09-23T10:49:52.851Z,180
2016-09-23T10:50:52.815Z,180
2016-09-23T10:51:52.875Z,180
2016-09-23T10:52:52.866Z,185
2016-09-23T10:53:52.862Z,180
2016-09-23T10:54:52.918Z,180
2016-09-23T10:55:53.265Z,180
2016-09-23T10:56:52.879Z,180
2016-09-23T10:57:52.840Z,185
2016-09-23T10:58:52.873Z,185
2016-09-23T10:59:52.856Z,195
2016-09-23T11:00:52.883Z,195
2016-09-23T11:01:52.869Z,205
2016-09-23T11:02:52.883Z,220
2016-09-23T11:03:52.873Z,250
2016-09-23T11:04:52.871Z,255
2016-09-23T11:05:52.898Z,240
2016-09-23T11:06:52.848Z,230
2016-09-23T11:07:52.907Z,220
2016-09-23T11:08:52.876Z,215
2016-09-23T11:09:52.863Z,230
2016-09-23T11:10:52.884Z,225
2016-09-23T11:11:52.891Z,210
2016-09-23T11:12:52.902Z,210
2016-09-23T11:13:52.933Z,220
2016-09-23T11:14:53.185Z,235
2016-09-23T11:15:53.166Z,230
2016-09-23T11:16:53.201Z,215
2016-09-23T11:17:52.919Z,200
2016-09-23T11:18:52.881Z,200
2016-09-23T11:19:52.916Z,205
2016-09-23T11:20:52.901Z,215
2016-09-23T11:21:52.886Z,225
2016-09-23T11:22:52.886Z,245
2016-09-23T11:23:52.902Z,260
2016-09-23T11:24:52.887Z,270
2016-09-23T11:25:52.955Z,275
2016-09-23T11:26:52.882Z,295
2016-09-23T11:27:52.934Z,275
2016-09-23T11:28:52.931Z,280
2016-09-23T11:29:52.915Z,275
2016-09-23T11:30:52.886Z,255
2016-09-23T11:31:52.929Z,245
2016-09-23T11:32:52.943Z,230
2016-09-23T11:33:52.944Z,225
2016-09-23T11:34:52.913Z,230
2016-09-23T11:35:52.919Z,235
2016-09-23T11:36:52.918Z,215
2016-09-23T11:37:52.925Z,195
2016-09-23T11:38:52.991Z,185
2016-09-23T11:39:52.941Z,175
2016-09-23T11:40:52.944Z,170
2016-09-23T11:41:52.952Z,165
2016-09-23T11:42:52.944Z,165
2016-09-23T11:43:52.963Z,165
2016-09-23T11:44:52.995Z,150
2016-09-23T11:45:52.979Z,150
2016-09-23T11:46:53.008Z,150
2016-09-23T11:47:52.989Z,155
2016-09-23T11:48:52.924Z,155
2016-09-23T11:49:52.973Z,160
2016-09-23T11:50:52.930Z,175
2016-09-23T11:51:52.975Z,215
2016-09-23T11:52:53.014Z,220
2016-09-23T11:53:52.960Z,195
2016-09-23T11:54:53.006Z,175
2016-09-23T11:55:52.973Z,175
2016-09-23T11:56:52.969Z,170
2016-09-23T11:57:53.003Z,165
2016-09-23T11:58:52.935Z,165
2016-09-23T11:59:52.936Z,165
2016-09-23T12:00:52.943Z,170
2016-09-23T12:01:52.906Z,170
2016-09-23T12:02:52.934Z,170
2016-09-23T12:03:52.918Z,175
2016-09-23T12:04:52.926Z,175
2016-09-23T12:05:52.924Z,175
2016-09-23T12:06:52.923Z,170
2016-09-23T12:07:52.971Z,170
2016-09-23T12:08:53.026Z,155
2016-09-23T12:09:52.989Z,165
2016-09-23T12:10:52.928Z,170
2016-09-23T12:11:52.960Z,190
2016-09-23T12:12:52.921Z,195
2016-09-23T12:13:53.001Z,190
2016-09-23T12:14:52.982Z,190
2016-09-23T12:15:52.962Z,210
2016-09-23T12:16:52.963Z,225
2016-09-23T12:17:52.970Z,225
2016-09-23T12:18:52.995Z,205
2016-09-23T12:19:52.967Z,200
2016-09-23T12:20:52.972Z,205
2016-09-23T12:21:52.978Z,200
2016-09-23T12:22:53.004Z,200
2016-09-23T12:23:53.029Z,210
2016-09-23T12:24:53.048Z,220
2016-09-23T12:25:53.075Z,215
2016-09-23T12:26:52.994Z,210
2016-09-23T12:27:53.011Z,235
2016-09-23T12:28:53.005Z,235
2016-09-23T12:29:52.942Z,230
2016-09-23T12:30:53.091Z,240
2016-09-23T12:31:53.046Z,260
2016-09-23T12:32:53.106Z,270
2016-09-23T12:33:53.020Z,280
2016-09-23T12:34:53.640Z,260
2016-09-23T12:35:52.983Z,260
2016-09-23T12:36:53.039Z,275
2016-09-23T12:37:53.035Z,285
2016-09-23T12:38:53.006Z,295
2016-09-23T12:39:52.945Z,285
2016-09-23T12:40:52.940Z,250
2016-09-23T12:41:53.002Z,220
2016-09-23T12:42:53.050Z,210
2016-09-23T12:43:53.022Z,205
2016-09-23T12:44:53.541Z,190
2016-09-23T12:45:53.063Z,180
2016-09-23T12:46:53.030Z,175
2016-09-23T12:47:53.006Z,175
2016-09-23T12:48:53.005Z,175
2016-09-23T12:49:52.957Z,185
2016-09-23T12:50:53.108Z,200
2016-09-23T12:51:53.027Z,215
2016-09-23T12:52:53.027Z,255
2016-09-23T12:53:53.045Z,270
2016-09-23T12:54:52.990Z,275
2016-09-23T12:55:52.956Z,270
2016-09-23T12:56:54.210Z,255
2016-09-23T12:57:53.063Z,235
2016-09-23T12:58:53.046Z,230
2016-09-23T12:59:53.025Z,220
2016-09-23T13:00:52.990Z,215
2016-09-23T13:01:53.026Z,210
2016-09-23T13:02:53.546Z,220
2016-09-23T13:03:53.029Z,240
2016-09-23T13:04:53.031Z,250
2016-09-23T13:05:53.022Z,260
2016-09-23T13:06:53.034Z,255
2016-09-23T13:07:53.744Z,240
2016-09-23T13:08:53.087Z,230
2016-09-23T13:09:53.006Z,230
2016-09-23T13:10:53.095Z,235
2016-09-23T13:11:53.080Z,240
2016-09-23T13:12:53.061Z,240
2016-09-23T13:13:53.097Z,220
2016-09-23T13:14:53.020Z,205
2016-09-23T13:15:53.004Z,200
2016-09-23T13:16:53.010Z,195
2016-09-23T13:17:53.041Z,190
2016-09-23T13:18:53.031Z,185
2016-09-23T13:19:53.013Z,180
2016-09-23T13:20:53.034Z,180
2016-09-23T13:21:53.030Z,180
2016-09-23T13:22:53.022Z,175
2016-09-23T13:23:53.071Z,160
2016-09-23T13:24:53.098Z,140
2016-09-23T13:25:53.068Z,125
2016-09-23T13:26:53.091Z,120
2016-09-23T13:27:53.008Z,135
2016-09-23T13:28:53.029Z,160
2016-09-23T13:29:53.065Z,170
2016-09-23T13:30:53.023Z,175
2016-09-23T13:31:53.077Z,185
2016-09-23T13:32:53.022Z,190
2016-09-23T13:33:53.075Z,170
2016-09-23T13:34:53.068Z,150
2016-09-23T13:35:53.030Z,150
2016-09-23T13:36:53.068Z,175
2016-09-23T13:37:53.036Z,195
2016-09-23T13:38:53.049Z,205
2016-09-23T13:39:53.060Z,190
2016-09-23T13:40:53.032Z,180
2016-09-23T13:41:53.057Z,170
2016-09-23T13:42:53.039Z,170
2016-09-23T13:43:53.075Z,170
2016-09-23T13:44:53.149Z,170
2016-09-23T13:45:53.077Z,165
2016-09-23T13:46:53.054Z,155
2016-09-23T13:47:53.078Z,145
2016-09-23T13:48:53.060Z,135
2016-09-23T13:49:53.077Z,135
2016-09-23T13:50:53.079Z,135
2016-09-23T13:51:53.087Z,145
2016-09-23T13:52:53.069Z,160
2016-09-23T13:53:53.040Z,180
2016-09-23T13:54:53.165Z,200
2016-09-23T13:55:53.083Z,225
2016-09-23T13:56:53.046Z,240
2016-09-23T13:57:53.115Z,250
2016-09-23T13:58:53.103Z,260
2016-09-23T13:59:53.078Z,255
2016-09-23T14:00:53.028Z,240
2016-09-23T14:01:53.081Z,225
2016-09-23T14:02:53.123Z,205
2016-09-23T14:03:53.078Z,200
2016-09-23T14:04:53.091Z,190
2016-09-23T14:05:53.076Z,190
2016-09-23T14:06:53.067Z,185
2016-09-23T14:07:53.091Z,190
2016-09-23T14:08:53.129Z,200
2016-09-23T14:09:53.073Z,205
2016-09-23T14:10:53.052Z,200